Hoppet Af Brantevik — SKWL — position and weather

sailwx.info

Track history (hours):
 
Tides and Currents Weather Stations Pressure Air Temp Water Temp Dewpoint Dewpoint Depression Visibility Wind Speed Wind Dir Waves Ship Positions

Hoppet Af Brantevik

Last reported at 2014-Jul-30 19:33 UTC. Time now 2014-Jul-31 03:25 UTC.
Position N 55°31' E 014°21'.

Length 17 m; draft 2.2 m.

Type: Ship. MMSI: 265525900.

Date/timePositionNaut miles runAvg speedWind from/ knotsBaromVisibWave heightAir tempDewpointWater temp
2014-Jul-30 19:33N 55°31' E 014°21'0 0.0
2014-Jul-29 20:32N 55°31' E 014°21'0 0.0
2014-Jul-29 19:14N 55°31' E 014°21'0 0.0
2014-Jul-29 18:26N 55°31' E 014°21'1 1.2
2014-Jul-29 17:33N 55°30' E 014°21'0 0.3
2014-Jul-29 16:20N 55°30' E 014°21'1 1.2
2014-Jul-29 15:32N 55°31' E 014°21'0 0.3
2014-Jul-29 14:31N 55°31' E 014°21'2 1.7
2014-Jul-29 13:33N 55°29' E 014°21'2 2.0
2014-Jul-29 12:33N 55°27' E 014°22'3 3.0
2014-Jul-29 11:32N 55°30' E 014°21'1 0.5
2014-Jul-29 10:32N 55°31' E 014°21'0 0.0
2014-Jul-29 09:23N 55°31' E 014°21'0 0.0
2014-Jul-29 08:29N 55°31' E 014°21'0 0.0
2014-Jul-29 07:32N 55°31' E 014°21'0 0.0
2014-Jul-29 06:32N 55°31' E 014°21'0 0.0
2014-Jul-29 05:26N 55°31' E 014°21'2 0.2
2014-Jul-28 17:04N 55°29' E 014°23'1 1.2
2014-Jul-28 16:31N 55°29' E 014°24'1 1.5
2014-Jul-28 15:33N 55°30' E 014°22'1 1.1
2014-Jul-28 14:26N 55°31' E 014°21'0 0.0
2014-Jul-28 13:32N 55°31' E 014°21'0 0.0
2014-Jul-28 12:32N 55°31' E 014°21'0 0.0
2014-Jul-28 11:32N 55°31' E 014°21'0 0.0
2014-Jul-28 10:29N 55°31' E 014°21'0 0.0
2014-Jul-28 09:32N 55°31' E 014°21'0 0.0
2014-Jul-28 08:29N 55°31' E 014°21'0 0.0
2014-Jul-28 07:32N 55°31' E 014°21'5 0.3
2014-Jul-27 17:19N 55°30' E 014°29'3 3.4
2014-Jul-27 16:34N 55°29' E 014°33'10 4.8
2014-Jul-27 14:33N 55°25' E 014°49'7 6.9
2014-Jul-27 13:33N 55°22' E 014°60'7 6.9
2014-Jul-27 12:33N 55°19' E 015°10'0 0.4
2014-Jul-27 11:31N 55°19' E 015°11'0 0.0
2014-Jul-27 10:31N 55°19' E 015°11'0 0.0
2014-Jul-27 09:26N 55°19' E 015°11'4 4.1
2014-Jul-27 08:34N 55°21' E 015°05'7 6.7
2014-Jul-27 07:34N 55°23' E 014°55'7 6.6
2014-Jul-27 06:34N 55°25' E 014°44'6 5.9
2014-Jul-27 05:32N 55°28' E 014°34'8 0.2
2014-Jul-25 15:06N 55°31' E 014°21'0 0.0
2014-Jul-25 14:06N 55°31' E 014°21'0 0.0
2014-Jul-25 13:12N 55°31' E 014°21'0 0.0
2014-Jul-25 12:30N 55°31' E 014°21'0 0.0
2014-Jul-25 11:30N 55°31' E 014°21'0 0.0
2014-Jul-25 10:24N 55°31' E 014°21'0 0.0
2014-Jul-25 08:15N 55°31' E 014°21'0 0.0
2014-Jul-25 07:33N 55°31' E 014°21'0 0.0
2014-Jul-25 06:33N 55°31' E 014°21'0 0.0
2014-Jul-25 05:33N 55°31' E 014°21'0 0.0
2014-Jul-25 04:33N 55°31' E 014°21'0 0.0
2014-Jul-25 03:33N 55°31' E 014°21'0 0.0
2014-Jul-25 01:12N 55°31' E 014°21'0 0.0
2014-Jul-25 00:30N 55°31' E 014°21'0 0.0
2014-Jul-24 23:33N 55°31' E 014°21'0 0.0
2014-Jul-24 22:30N 55°31' E 014°21'0 0.0
2014-Jul-24 21:33N 55°31' E 014°21'0 0.0
2014-Jul-24 20:33N 55°31' E 014°21'0 0.0
2014-Jul-24 19:27N 55°31' E 014°21'0 0.0
2014-Jul-24 18:24N 55°31' E 014°21'0 0.0
2014-Jul-24 15:12N 55°31' E 014°21'0 0.0
2014-Jul-24 14:27N 55°31' E 014°21'1 1.3
2014-Jul-24 13:33N 55°30' E 014°21'4 4.3
2014-Jul-24 12:33N 55°26' E 014°24'4 4.4
2014-Jul-24 11:33N 55°30' E 014°22'1 0.9
2014-Jul-24 10:31N 55°31' E 014°21'0 0.0
2014-Jul-24 06:16N 55°31' E 014°21'0 0.0
2014-Jul-24 05:19N 55°31' E 014°21'0 0.0
2014-Jul-24 04:22N 55°31' E 014°21'0 0.0
2014-Jul-24 03:28N 55°31' E 014°21'0 0.0
2014-Jul-24 02:31N 55°31' E 014°21'0 0.0
2014-Jul-24 01:28N 55°31' E 014°21'0 0.0
2014-Jul-24 00:31N 55°31' E 014°21'0 0.0
2014-Jul-23 23:22N 55°31' E 014°21'0 0.0
2014-Jul-23 19:25N 55°31' E 014°21'1 0.2
2014-Jul-23 15:33N 55°30' E 014°22'  
2014-Jul-21 05:14N 55°31' E 014°21'0 0.0
2014-Jul-21 02:23N 55°31' E 014°21'0 0.0
2014-Jul-21 01:32N 55°31' E 014°21'0 0.0
2014-Jul-21 00:14N 55°31' E 014°21'0 0.0
2014-Jul-20 22:08N 55°31' E 014°21'0 0.0
2014-Jul-20 21:32N 55°31' E 014°21'0 0.0
2014-Jul-20 20:14N 55°31' E 014°21'  
Track history (hours):
 
Tides and Currents Weather Stations Pressure Air Temp Water Temp Dewpoint Dewpoint Depression Visibility Wind Speed Wind Dir Waves Ship Positions

Hoppet Af Brantevik

Last reported at 2014-Jul-30 19:33 UTC. Time now 2014-Jul-31 03:25 UTC.
Position N 55°31' E 014°21'.

Length 17 m; draft 2.2 m.

Type: Ship. MMSI: 265525900.

Date/timePositionNaut miles runAvg speedWind from/ knotsBaromVisibWave heightAir tempDewpointWater temp
2014-Jul-30 19:33N 55°31' E 014°21'0 0.0
2014-Jul-29 20:32N 55°31' E 014°21'0 0.0
2014-Jul-29 19:14N 55°31' E 014°21'0 0.0
2014-Jul-29 18:26N 55°31' E 014°21'1 1.2
2014-Jul-29 17:33N 55°30' E 014°21'0 0.3
2014-Jul-29 16:20N 55°30' E 014°21'1 1.2
2014-Jul-29 15:32N 55°31' E 014°21'0 0.3
2014-Jul-29 14:31N 55°31' E 014°21'2 1.7
2014-Jul-29 13:33N 55°29' E 014°21'2 2.0
2014-Jul-29 12:33N 55°27' E 014°22'3 3.0
2014-Jul-29 11:32N 55°30' E 014°21'1 0.5
2014-Jul-29 10:32N 55°31' E 014°21'0 0.0
2014-Jul-29 09:23N 55°31' E 014°21'0 0.0
2014-Jul-29 08:29N 55°31' E 014°21'0 0.0
2014-Jul-29 07:32N 55°31' E 014°21'0 0.0
2014-Jul-29 06:32N 55°31' E 014°21'0 0.0
2014-Jul-29 05:26N 55°31' E 014°21'2 0.2
2014-Jul-28 17:04N 55°29' E 014°23'1 1.2
2014-Jul-28 16:31N 55°29' E 014°24'1 1.5
2014-Jul-28 15:33N 55°30' E 014°22'1 1.1
2014-Jul-28 14:26N 55°31' E 014°21'0 0.0
2014-Jul-28 13:32N 55°31' E 014°21'0 0.0
2014-Jul-28 12:32N 55°31' E 014°21'0 0.0
2014-Jul-28 11:32N 55°31' E 014°21'0 0.0
2014-Jul-28 10:29N 55°31' E 014°21'0 0.0
2014-Jul-28 09:32N 55°31' E 014°21'0 0.0
2014-Jul-28 08:29N 55°31' E 014°21'0 0.0
2014-Jul-28 07:32N 55°31' E 014°21'5 0.3
2014-Jul-27 17:19N 55°30' E 014°29'3 3.4
2014-Jul-27 16:34N 55°29' E 014°33'10 4.8
2014-Jul-27 14:33N 55°25' E 014°49'7 6.9
2014-Jul-27 13:33N 55°22' E 014°60'7 6.9
2014-Jul-27 12:33N 55°19' E 015°10'0 0.4
2014-Jul-27 11:31N 55°19' E 015°11'0 0.0
2014-Jul-27 10:31N 55°19' E 015°11'0 0.0
2014-Jul-27 09:26N 55°19' E 015°11'4 4.1
2014-Jul-27 08:34N 55°21' E 015°05'7 6.7
2014-Jul-27 07:34N 55°23' E 014°55'7 6.6
2014-Jul-27 06:34N 55°25' E 014°44'6 5.9
2014-Jul-27 05:32N 55°28' E 014°34'8 0.2
2014-Jul-25 15:06N 55°31' E 014°21'0 0.0
2014-Jul-25 14:06N 55°31' E 014°21'0 0.0
2014-Jul-25 13:12N 55°31' E 014°21'0 0.0
2014-Jul-25 12:30N 55°31' E 014°21'0 0.0
2014-Jul-25 11:30N 55°31' E 014°21'0 0.0
2014-Jul-25 10:24N 55°31' E 014°21'0 0.0
2014-Jul-25 08:15N 55°31' E 014°21'0 0.0
2014-Jul-25 07:33N 55°31' E 014°21'0 0.0
2014-Jul-25 06:33N 55°31' E 014°21'0 0.0
2014-Jul-25 05:33N 55°31' E 014°21'0 0.0
2014-Jul-25 04:33N 55°31' E 014°21'0 0.0
2014-Jul-25 03:33N 55°31' E 014°21'0 0.0
2014-Jul-25 01:12N 55°31' E 014°21'0 0.0
2014-Jul-25 00:30N 55°31' E 014°21'0 0.0
2014-Jul-24 23:33N 55°31' E 014°21'0 0.0
2014-Jul-24 22:30N 55°31' E 014°21'0 0.0
2014-Jul-24 21:33N 55°31' E 014°21'0 0.0
2014-Jul-24 20:33N 55°31' E 014°21'0 0.0
2014-Jul-24 19:27N 55°31' E 014°21'0 0.0
2014-Jul-24 18:24N 55°31' E 014°21'0 0.0
2014-Jul-24 15:12N 55°31' E 014°21'0 0.0
2014-Jul-24 14:27N 55°31' E 014°21'1 1.3
2014-Jul-24 13:33N 55°30' E 014°21'4 4.3
2014-Jul-24 12:33N 55°26' E 014°24'4 4.4
2014-Jul-24 11:33N 55°30' E 014°22'1 0.9
2014-Jul-24 10:31N 55°31' E 014°21'0 0.0
2014-Jul-24 06:16N 55°31' E 014°21'0 0.0
2014-Jul-24 05:19N 55°31' E 014°21'0 0.0
2014-Jul-24 04:22N 55°31' E 014°21'0 0.0
2014-Jul-24 03:28N 55°31' E 014°21'0 0.0
2014-Jul-24 02:31N 55°31' E 014°21'0 0.0
2014-Jul-24 01:28N 55°31' E 014°21'0 0.0
2014-Jul-24 00:31N 55°31' E 014°21'0 0.0
2014-Jul-23 23:22N 55°31' E 014°21'0 0.0
2014-Jul-23 19:25N 55°31' E 014°21'1 0.2
2014-Jul-23 15:33N 55°30' E 014°22'  
2014-Jul-21 05:14N 55°31' E 014°21'0 0.0
2014-Jul-21 02:23N 55°31' E 014°21'0 0.0
2014-Jul-21 01:32N 55°31' E 014°21'0 0.0
2014-Jul-21 00:14N 55°31' E 014°21'0 0.0
2014-Jul-20 22:08N 55°31' E 014°21'0 0.0
2014-Jul-20 21:32N 55°31' E 014°21'0 0.0
2014-Jul-20 20:14N 55°31' E 014°21'  

Dump ship's entire track history